createdAt,value
2023-11-12T00:02:39.630Z,19.64
2023-11-12T00:07:42.496Z,19.64
2023-11-12T00:12:44.689Z,19.64
2023-11-12T00:17:47.398Z,19.62
2023-11-12T00:22:49.677Z,19.63
2023-11-12T00:27:52.065Z,19.61
2023-11-12T00:32:54.787Z,19.61
2023-11-12T00:37:57.122Z,19.63
2023-11-12T00:43:00.546Z,19.62
2023-11-12T00:48:03.029Z,19.65
2023-11-12T00:53:05.279Z,19.63
2023-11-12T00:58:07.624Z,19.62
2023-11-12T01:03:13.545Z,19.62
2023-11-12T01:08:15.872Z,19.62
2023-11-12T01:13:19.796Z,19.63
2023-11-12T01:18:22.518Z,19.61
2023-11-12T01:23:24.738Z,19.62
2023-11-12T01:28:31.192Z,19.63
2023-11-12T01:33:33.621Z,19.62
2023-11-12T01:38:35.880Z,19.62
2023-11-12T01:43:38.498Z,19.63
2023-11-12T01:48:41.152Z,19.63
2023-11-12T01:53:43.457Z,19.62
2023-11-12T01:58:46.395Z,19.62
2023-11-12T02:03:50.374Z,19.65
2023-11-12T02:08:52.746Z,19.63
2023-11-12T02:13:56.185Z,19.62
2023-11-12T02:18:58.453Z,19.64
2023-11-12T02:24:00.610Z,19.62
2023-11-12T02:29:02.818Z,19.62
2023-11-12T02:34:06.286Z,19.63
2023-11-12T02:39:13.698Z,19.62
2023-11-12T02:44:16.230Z,19.63
2023-11-12T02:49:28.296Z,19.61
2023-11-12T02:54:30.507Z,19.62
2023-11-12T02:59:32.884Z,19.63
2023-11-12T03:04:35.051Z,19.63
2023-11-12T03:09:37.305Z,19.62
2023-11-12T03:14:39.501Z,19.63
2023-11-12T03:19:41.849Z,19.64
2023-11-12T03:24:44.025Z,19.62
2023-11-12T03:29:46.298Z,19.60
2023-11-12T03:34:51.607Z,19.61
2023-11-12T03:39:53.807Z,19.62
2023-11-12T03:44:58.277Z,19.61
2023-11-12T03:50:00.737Z,19.63
2023-11-12T03:55:04.632Z,19.63
2023-11-12T04:00:08.515Z,19.64
2023-11-12T04:05:13.760Z,19.63
2023-11-12T04:10:16.027Z,19.64
2023-11-12T04:15:18.193Z,19.64
2023-11-12T04:20:20.693Z,19.65
2023-11-12T04:25:23.080Z,19.66
2023-11-12T04:30:25.332Z,19.62
2023-11-12T04:35:27.632Z,19.65
2023-11-12T04:40:29.783Z,19.64
2023-11-12T04:45:31.905Z,19.64
2023-11-12T04:50:34.420Z,19.64
2023-11-12T04:55:36.577Z,19.63
2023-11-12T05:00:41.713Z,19.65
2023-11-12T05:05:43.893Z,19.64
2023-11-12T05:10:46.280Z,19.64
2023-11-12T05:15:48.533Z,19.65
2023-11-12T05:20:50.683Z,19.65
2023-11-12T05:25:54.278Z,19.64
2023-11-12T05:30:57.193Z,19.63
2023-11-12T05:35:59.401Z,19.62
2023-11-12T05:41:02.023Z,19.63
2023-11-12T05:46:04.386Z,19.64
2023-11-12T05:51:07.252Z,19.64
2023-11-12T05:56:10.073Z,19.64
2023-11-12T06:01:13.529Z,19.64
2023-11-12T06:06:16.188Z,19.64
2023-11-12T06:11:18.311Z,19.62
2023-11-12T06:16:20.705Z,19.64
2023-11-12T06:21:22.968Z,19.65
2023-11-12T06:26:25.041Z,19.66
2023-11-12T06:31:27.648Z,19.65
2023-11-12T06:36:29.761Z,19.64
2023-11-12T06:41:32.101Z,19.65
2023-11-12T06:46:34.280Z,19.67
2023-11-12T06:51:36.385Z,19.65
2023-11-12T06:56:38.587Z,19.66
2023-11-12T07:01:40.827Z,19.64
2023-11-12T07:06:50.418Z,19.63
2023-11-12T07:11:59.348Z,19.64
2023-11-12T07:17:01.538Z,19.66
2023-11-12T07:22:03.758Z,19.65
2023-11-12T07:27:05.934Z,19.66
2023-11-12T07:32:08.119Z,19.68
2023-11-12T07:37:10.244Z,19.67
2023-11-12T07:42:12.481Z,19.69
2023-11-12T07:47:14.846Z,19.69
2023-11-12T07:52:16.929Z,19.68
2023-11-12T07:57:19.689Z,19.69
2023-11-12T08:02:23.500Z,19.69
2023-11-12T08:07:25.646Z,19.70
2023-11-12T08:12:27.738Z,19.69
2023-11-12T08:17:29.937Z,19.70
2023-11-12T08:22:32.951Z,19.67
2023-11-12T08:27:35.967Z,19.70
2023-11-12T08:32:38.494Z,19.72
2023-11-12T08:37:42.124Z,19.71
2023-11-12T08:42:44.380Z,19.71
2023-11-12T08:47:47.138Z,19.70
2023-11-12T08:52:49.360Z,19.70
2023-11-12T08:57:51.558Z,19.72
2023-11-12T09:02:54.137Z,19.71
2023-11-12T09:07:56.238Z,19.74
2023-11-12T09:12:58.774Z,19.74
2023-11-12T09:18:02.560Z,19.74
2023-11-12T09:23:04.820Z,19.71
2023-11-12T09:28:10.163Z,19.73
2023-11-12T09:33:13.820Z,19.74
2023-11-12T09:38:15.953Z,19.72
2023-11-12T09:43:18.595Z,19.74
2023-11-12T09:48:41.120Z,19.71
2023-11-12T09:53:48.721Z,19.73
2023-11-12T09:58:50.968Z,19.74
2023-11-12T10:03:53.521Z,19.74
2023-11-12T10:08:55.828Z,19.77
2023-11-12T10:13:58.077Z,19.74
2023-11-12T10:19:17.082Z,19.72
2023-11-12T10:24:21.386Z,19.75
2023-11-12T10:29:25.114Z,19.76
2023-11-12T10:34:28.899Z,19.76
2023-11-12T10:39:42.887Z,19.77
2023-11-12T10:44:46.318Z,19.80
2023-11-12T10:49:49.146Z,19.79
2023-11-12T10:54:59.728Z,19.76
2023-11-12T11:00:06.901Z,19.77
2023-11-12T11:05:09.416Z,19.76
2023-11-12T11:10:12.528Z,19.76
2023-11-12T11:15:49.555Z,19.75
2023-11-12T11:21:07.250Z,19.77
2023-11-12T11:26:28.291Z,19.77
2023-11-12T11:31:30.474Z,19.78
2023-11-12T11:36:33.463Z,19.77
2023-11-12T11:41:36.608Z,19.76
2023-11-12T11:47:17.540Z,19.78
2023-11-12T11:52:27.708Z,19.79
2023-11-12T11:57:30.957Z,19.79
2023-11-12T12:02:46.687Z,19.78
2023-11-12T12:07:59.891Z,19.78
2023-11-12T12:13:02.166Z,19.79
2023-11-12T12:18:21.231Z,19.78
2023-11-12T12:23:23.605Z,19.83
2023-11-12T12:28:30.665Z,19.81
2023-11-12T12:33:33.977Z,19.81
2023-11-12T12:38:37.938Z,19.84
2023-11-12T12:43:52.126Z,19.82
2023-11-12T12:48:57.098Z,19.84
2023-11-12T12:53:59.966Z,19.84
2023-11-12T12:59:02.422Z,19.84
2023-11-12T13:04:04.718Z,19.84
2023-11-12T13:09:27.722Z,19.83
2023-11-12T13:14:29.910Z,19.84
2023-11-12T13:19:33.652Z,19.84
2023-11-12T13:24:35.862Z,19.82
2023-11-12T13:29:38.059Z,19.85
2023-11-12T13:34:40.272Z,19.83
2023-11-12T13:39:43.575Z,19.84
2023-11-12T13:44:47.442Z,19.85
2023-11-12T13:49:49.440Z,19.83
2023-11-12T13:54:51.587Z,19.86
2023-11-12T13:59:55.406Z,19.86
2023-11-12T14:04:57.465Z,19.85
2023-11-12T14:09:59.592Z,19.86
2023-11-12T14:15:02.116Z,19.87
2023-11-12T14:20:08.010Z,19.87
2023-11-12T14:25:15.040Z,19.88
2023-11-12T14:30:20.807Z,19.88
2023-11-12T14:35:24.061Z,19.89
2023-11-12T14:40:28.278Z,19.89
2023-11-12T14:45:31.446Z,19.87
2023-11-12T14:50:34.085Z,19.89
2023-11-12T14:55:38.348Z,19.91
2023-11-12T15:00:41.344Z,19.89
2023-11-12T15:05:43.602Z,19.90
2023-11-12T15:10:45.770Z,19.89
2023-11-12T15:15:48.783Z,19.91
2023-11-12T15:20:50.889Z,19.91
2023-11-12T15:25:53.053Z,19.91
2023-11-12T15:30:55.439Z,19.91
2023-11-12T15:35:57.617Z,19.92
2023-11-12T15:41:00.296Z,19.90
2023-11-12T15:46:06.138Z,19.91
2023-11-12T15:51:08.478Z,19.93
2023-11-12T15:56:10.733Z,19.92
2023-11-12T16:01:13.050Z,19.91
2023-11-12T16:06:16.804Z,19.93
2023-11-12T16:11:18.812Z,19.91
2023-11-12T16:16:20.956Z,19.93
2023-11-12T16:21:23.420Z,19.92
2023-11-12T16:26:25.800Z,19.94
2023-11-12T16:31:29.266Z,19.92
2023-11-12T16:36:31.450Z,19.94
2023-11-12T16:41:33.871Z,19.92
2023-11-12T16:46:36.006Z,19.93
2023-11-12T16:51:38.103Z,19.93
2023-11-12T16:56:40.244Z,19.94
2023-11-12T17:01:45.895Z,19.93
2023-11-12T17:06:49.619Z,19.95
2023-11-12T17:11:51.854Z,19.95
2023-11-12T17:16:55.881Z,19.95
2023-11-12T17:21:58.244Z,19.93
2023-11-12T17:27:00.797Z,19.95
2023-11-12T17:32:03.755Z,19.96
2023-11-12T17:37:05.917Z,19.97
2023-11-12T17:42:10.568Z,19.96
2023-11-12T17:47:15.193Z,19.95
2023-11-12T17:52:17.345Z,19.95
2023-11-12T17:57:21.875Z,20.00
2023-11-12T18:02:24.597Z,19.97
2023-11-12T18:07:28.746Z,19.96
2023-11-12T18:12:30.917Z,19.97
2023-11-12T18:17:33.048Z,19.96
2023-11-12T18:22:36.396Z,19.96
2023-11-12T18:27:40.591Z,19.96
2023-11-12T18:32:42.739Z,19.96
2023-11-12T18:37:46.303Z,19.94
2023-11-12T18:42:48.556Z,19.96
2023-11-12T18:47:51.582Z,19.97
2023-11-12T18:52:55.337Z,19.97
2023-11-12T18:57:58.763Z,19.95
2023-11-12T19:03:01.224Z,19.97
2023-11-12T19:08:04.067Z,19.97
2023-11-12T19:13:06.253Z,19.97
2023-11-12T19:18:08.585Z,19.95
2023-11-12T19:23:11.367Z,19.96
2023-11-12T19:28:13.652Z,19.96
2023-11-12T19:33:15.829Z,19.97
2023-11-12T19:38:18.094Z,19.96
2023-11-12T19:43:21.388Z,19.98
2023-11-12T19:48:24.106Z,19.97
2023-11-12T19:53:29.907Z,19.98
2023-11-12T19:58:32.130Z,19.95
2023-11-12T20:03:34.347Z,19.95
2023-11-12T20:08:36.521Z,19.96
2023-11-12T20:13:40.307Z,19.97
2023-11-12T20:18:44.908Z,19.95
2023-11-12T20:23:53.823Z,19.97
2023-11-12T20:28:56.764Z,19.96
2023-11-12T20:34:00.713Z,19.99
2023-11-12T20:39:03.690Z,19.99
2023-11-12T20:44:08.043Z,19.97
2023-11-12T20:49:10.281Z,19.97
2023-11-12T20:54:17.378Z,19.97
2023-11-12T20:59:22.872Z,19.99
2023-11-12T21:04:26.266Z,19.99
2023-11-12T21:09:28.520Z,19.98
2023-11-12T21:14:30.939Z,19.99
2023-11-12T21:19:36.094Z,19.99
2023-11-12T21:24:40.301Z,19.99
2023-11-12T21:29:42.871Z,19.99
2023-11-12T21:34:44.975Z,20.00
2023-11-12T21:39:47.159Z,20.00
2023-11-12T21:44:50.770Z,19.99
2023-11-12T21:49:53.247Z,20.00
2023-11-12T21:54:55.491Z,19.99
2023-11-12T21:59:57.678Z,19.99
2023-11-12T22:05:02.342Z,19.99
2023-11-12T22:10:06.179Z,20.00
2023-11-12T22:15:14.784Z,20.00
2023-11-12T22:20:17.336Z,19.98
2023-11-12T22:25:19.639Z,19.98
2023-11-12T22:30:23.664Z,19.98
2023-11-12T22:35:26.034Z,19.96
2023-11-12T22:40:28.217Z,19.98
2023-11-12T22:45:30.337Z,19.99
2023-11-12T22:50:33.537Z,19.99
2023-11-12T22:55:36.241Z,19.98
2023-11-12T23:00:53.223Z,19.99
2023-11-12T23:05:56.329Z,19.99
2023-11-12T23:10:59.159Z,19.99
2023-11-12T23:16:02.053Z,19.98
2023-11-12T23:21:09.534Z,19.97
2023-11-12T23:26:12.170Z,19.99
2023-11-12T23:31:14.386Z,19.98
2023-11-12T23:36:17.563Z,19.99
2023-11-12T23:41:20.059Z,19.98
2023-11-12T23:46:22.196Z,19.98
2023-11-12T23:51:24.745Z,19.96
2023-11-12T23:56:27.160Z,19.98
